Time;durP1;ratioP1;P1;durP2;ratioP2;P2;SDS_P1;SDS_P2;PMS_P1;PMS_P2;Temp;Humidity;BMP_temperature;BMP_pressure;BME280_temperature;BME280_humidity;BME280_pressure;Samples;Min_cycle;Max_cycle;Signal;HPM_P1;HPM_P2
2022/05/03 00:01:03;;;;;;;15.60;13.00;;;;;;;9.55;62.87;96519.04;107908;1263;39298;-80
2022/05/03 00:03:41;;;;;;;17.00;12.40;;;;;;;9.54;62.87;96519.05;107904;1264;30960;-80
2022/05/03 00:06:25;;;;;;;14.10;12.40;;;;;;;9.51;63.12;96515.52;107926;1264;38950;-79
2022/05/03 00:09:04;;;;;;;19.10;13.70;;;;;;;9.48;63.12;96512.73;107971;1264;38438;-81
2022/05/03 00:11:41;;;;;;;14.40;12.60;;;;;;;9.44;63.11;96513.29;107812;1265;38254;-80
2022/05/03 00:14:21;;;;;;;16.30;12.20;;;;;;;9.43;63.24;96514.34;107885;1265;36577;-80
2022/05/03 00:16:53;;;;;;;17.50;13.60;;;;;;;9.40;63.34;96512.40;108090;1263;33732;-80
2022/05/03 00:19:24;;;;;;;17.80;13.50;;;;;;;9.39;63.13;96513.62;107936;1263;37792;-80
2022/05/03 00:21:55;;;;;;;17.00;11.80;;;;;;;9.39;63.25;96513.73;107965;1263;33931;-80
2022/05/03 00:24:26;;;;;;;15.90;12.20;;;;;;;9.38;63.49;96508.29;107885;1265;41504;-80
2022/05/03 00:26:57;;;;;;;14.50;11.50;;;;;;;9.38;63.33;96506.91;107877;1265;46008;-80
2022/05/03 00:29:29;;;;;;;15.10;10.80;;;;;;;9.37;63.26;96505.86;107915;1263;38027;-80
2022/05/03 00:32:02;;;;;;;12.60;10.60;;;;;;;9.40;63.14;96502.23;107977;1264;32958;-80
2022/05/03 00:34:34;;;;;;;12.50;9.70;;;;;;;9.44;63.05;96501.02;107901;1264;31201;-81
2022/05/03 00:37:05;;;;;;;10.10;8.90;;;;;;;9.53;62.92;96499.36;107865;1265;44213;-81
2022/05/03 00:39:36;;;;;;;10.50;8.50;;;;;;;9.62;62.96;96498.99;107822;1265;36161;-80
2022/05/03 00:42:11;;;;;;;11.60;8.80;;;;;;;9.79;62.89;96497.19;107900;1265;41878;-80
2022/05/03 00:44:58;;;;;;;10.80;8.50;;;;;;;9.95;62.76;96497.19;107909;1263;40214;-81
2022/05/03 00:47:39;;;;;;;14.40;9.00;;;;;;;10.10;62.43;96498.13;107863;1264;35576;-81
2022/05/03 00:50:12;;;;;;;11.80;10.20;;;;;;;10.20;62.13;96497.63;107906;1265;40762;-81
2022/05/03 00:52:48;;;;;;;12.70;10.80;;;;;;;10.24;62.02;96499.14;107896;1265;37158;-80
2022/05/03 00:55:43;;;;;;;13.60;11.20;;;;;;;10.25;61.98;96499.13;107898;1264;39041;-80
2022/05/03 00:58:32;;;;;;;12.40;10.10;;;;;;;10.31;61.99;96499.75;107889;1265;46990;-80
2022/05/03 01:01:10;;;;;;;14.40;10.20;;;;;;;10.27;62.29;96501.24;107876;1263;61254;-80
2022/05/03 01:03:51;;;;;;;13.90;11.50;;;;;;;10.21;62.68;96500.17;107942;1263;36918;-80
2022/05/03 01:06:34;;;;;;;13.00;10.70;;;;;;;10.15;62.98;96501.86;107903;1264;37506;-80
2022/05/03 01:09:07;;;;;;;14.40;10.00;;;;;;;10.07;62.96;96500.73;107943;1264;35177;-81
2022/05/03 01:11:47;;;;;;;14.90;11.00;;;;;;;9.98;63.39;96501.24;108009;1263;46601;-81
2022/05/03 01:14:42;;;;;;;13.10;11.30;;;;;;;9.95;63.28;96504.44;107878;1264;39019;-80
2022/05/03 01:17:22;;;;;;;15.90;12.20;;;;;;;9.92;63.53;96501.98;107883;1264;40884;-80
2022/05/03 01:20:03;;;;;;;13.60;11.40;;;;;;;9.89;63.47;96502.85;107982;1263;41114;-81
2022/05/03 01:23:10;;;;;;;13.80;12.00;;;;;;;9.85;63.47;96499.80;107809;1265;66635;-81
2022/05/03 01:25:55;;;;;;;14.00;12.10;;;;;;;9.80;63.59;96500.95;107965;1265;36251;-80
2022/05/03 01:28:31;;;;;;;15.10;10.60;;;;;;;9.75;63.98;96502.98;107900;1264;37225;-81
2022/05/03 01:31:08;;;;;;;14.20;11.00;;;;;;;9.70;63.89;96502.81;107881;1265;32479;-80
2022/05/03 01:33:42;;;;;;;14.90;10.90;;;;;;;9.68;63.97;96501.98;107923;1264;48417;-81
2022/05/03 01:36:20;;;;;;;13.10;9.60;;;;;;;9.72;64.05;96503.54;107822;1265;38752;-80
2022/05/03 01:39:01;;;;;;;12.90;10.40;;;;;;;9.74;63.88;96500.30;107881;1264;38356;-80
2022/05/03 01:41:43;;;;;;;13.90;11.90;;;;;;;9.65;63.83;96501.41;107921;1265;33500;-81
2022/05/03 01:44:24;;;;;;;13.60;11.40;;;;;;;9.64;64.28;96497.51;107884;1265;39342;-80
2022/05/03 01:47:07;;;;;;;13.50;10.80;;;;;;;9.74;64.32;96505.02;107940;1264;31340;-80
2022/05/03 01:52:55;;;;;;;13.90;11.50;;;;;;;9.89;64.36;96503.43;107880;1265;39723;-80
2022/05/03 01:56:02;;;;;;;13.10;10.30;;;;;;;9.93;64.38;96502.98;107903;1265;38351;-80
2022/05/03 01:58:46;;;;;;;13.60;11.10;;;;;;;9.96;64.20;96504.47;107815;1265;38026;-80
2022/05/03 02:01:33;;;;;;;13.50;11.90;;;;;;;9.98;64.30;96501.77;107890;1265;38686;-79
2022/05/03 02:04:15;;;;;;;15.10;10.70;;;;;;;9.94;64.38;96505.56;107898;1264;45274;-80
2022/05/03 02:06:56;;;;;;;14.90;11.50;;;;;;;9.96;64.53;96503.20;107881;1265;40548;-80
2022/05/03 02:09:42;;;;;;;15.20;11.90;;;;;;;9.98;64.55;96504.15;107906;1264;31087;-80
2022/05/03 02:12:16;;;;;;;16.10;12.00;;;;;;;10.00;64.47;96502.35;107979;1263;36221;-80
2022/05/03 02:14:53;;;;;;;13.80;11.50;;;;;;;10.03;64.51;96502.64;107923;1265;31911;-79
2022/05/03 02:17:51;;;;;;;15.60;11.80;;;;;;;10.04;64.13;96504.11;107904;1265;39403;-80
2022/05/03 02:20:46;;;;;;;13.00;11.40;;;;;;;10.03;64.30;96506.34;107806;1265;40653;-80
2022/05/03 02:23:25;;;;;;;16.00;12.70;;;;;;;10.05;64.24;96503.41;107989;1263;46977;-80
2022/05/03 02:26:18;;;;;;;14.50;12.70;;;;;;;10.02;64.32;96499.73;107825;1265;45718;-80
2022/05/03 02:28:55;;;;;;;14.60;12.30;;;;;;;9.95;64.50;96497.27;107987;1264;41414;-80
2022/05/03 02:31:43;;;;;;;14.30;12.50;;;;;;;9.92;64.62;96499.97;107898;1265;35876;-80
2022/05/03 02:34:26;;;;;;;16.10;12.60;;;;;;;9.98;64.80;96496.27;107968;1264;38516;-80
2022/05/03 02:37:04;;;;;;;15.20;13.60;;;;;;;10.10;64.63;96497.06;108033;1263;35061;-80
2022/05/03 02:39:39;;;;;;;14.90;11.70;;;;;;;10.19;64.57;96495.09;107896;1263;40845;-80
2022/05/03 02:42:13;;;;;;;14.00;12.00;;;;;;;10.24;64.74;96492.95;108044;1264;35648;-80
2022/05/03 02:44:44;;;;;;;16.50;11.90;;;;;;;10.23;64.78;96495.82;107913;1265;43145;-80
2022/05/03 02:47:29;;;;;;;12.80;9.10;;;;;;;10.19;65.03;96486.73;107880;1263;42132;-80
2022/05/03 02:50:15;;;;;;;14.20;12.40;;;;;;;10.19;65.04;96485.98;107916;1266;43055;-81
2022/05/03 02:52:54;;;;;;;13.40;11.10;;;;;;;10.21;64.86;96486.34;107914;1264;38468;-80
2022/05/03 02:55:38;;;;;;;15.20;12.10;;;;;;;10.23;64.73;96490.48;107926;1264;38668;-80
2022/05/03 02:58:19;;;;;;;13.60;11.80;;;;;;;10.22;64.74;96487.98;107921;1266;44199;-80
2022/05/03 03:04:12;;;;;;;16.10;12.80;;;;;;;10.12;64.69;96497.16;107841;1265;38460;-80
2022/05/03 03:06:45;;;;;;;13.60;12.00;;;;;;;10.04;64.41;96494.37;107823;1266;37178;-79
2022/05/03 03:09:22;;;;;;;15.00;12.60;;;;;;;10.01;64.52;96500.69;107995;1263;29621;-80
2022/05/03 03:12:03;;;;;;;16.40;13.30;;;;;;;9.96;64.60;96497.59;107923;1263;36412;-79
2022/05/03 03:14:48;;;;;;;16.00;11.00;;;;;;;9.97;64.83;96501.34;107928;1264;36462;-80
2022/05/03 03:17:26;;;;;;;13.90;10.90;;;;;;;9.97;64.94;96498.91;108015;1266;38684;-80
2022/05/03 03:20:10;;;;;;;13.00;11.10;;;;;;;9.93;64.95;96498.31;108012;1263;36993;-80
2022/05/03 03:22:42;;;;;;;15.10;11.70;;;;;;;9.83;65.09;96496.09;107978;1264;28735;-80
2022/05/03 03:25:16;;;;;;;12.70;11.30;;;;;;;9.80;65.11;96496.96;107863;1264;39654;-79
2022/05/03 03:27:48;;;;;;;14.10;11.30;;;;;;;9.78;65.17;96496.30;107916;1263;39309;-80
2022/05/03 03:30:20;;;;;;;14.40;12.40;;;;;;;9.79;65.14;96500.84;107931;1263;41481;-80
2022/05/03 03:32:56;;;;;;;14.10;11.50;;;;;;;9.80;64.95;96499.30;108043;1263;36861;-80
2022/05/03 03:35:28;;;;;;;13.90;11.50;;;;;;;9.83;65.02;96496.68;107813;1265;41106;-80
2022/05/03 03:38:01;;;;;;;12.90;10.40;;;;;;;9.88;64.91;96498.24;107878;1264;35184;-80
2022/05/03 03:40:32;;;;;;;13.40;10.70;;;;;;;9.93;65.16;96499.33;107973;1263;39272;-80
2022/05/03 03:43:02;;;;;;;13.40;11.00;;;;;;;9.86;65.16;96500.00;107978;1263;40290;-80
2022/05/03 03:45:34;;;;;;;14.50;10.70;;;;;;;9.86;65.34;96499.52;107912;1264;40589;-80
2022/05/03 03:48:08;;;;;;;14.60;11.40;;;;;;;9.92;65.33;96502.30;107939;1264;34667;-80
2022/05/03 03:50:40;;;;;;;12.90;10.90;;;;;;;10.07;65.04;96502.98;107969;1266;40668;-80
2022/05/03 03:53:11;;;;;;;14.50;11.80;;;;;;;10.16;64.75;96503.71;107983;1264;40781;-81
2022/05/03 03:55:43;;;;;;;13.30;11.90;;;;;;;10.17;64.67;96503.91;107999;1264;40966;-78
2022/05/03 03:58:14;;;;;;;13.20;11.70;;;;;;;10.15;64.71;96500.38;107972;1264;41491;-79
2022/05/03 04:00:46;;;;;;;14.20;12.10;;;;;;;10.10;64.88;96498.74;107909;1263;38329;-80
2022/05/03 04:03:17;;;;;;;12.50;11.00;;;;;;;10.05;65.20;96498.80;107913;1265;38245;-80
2022/05/03 04:05:49;;;;;;;14.40;10.70;;;;;;;9.99;65.94;96500.76;107769;1266;35154;-79
2022/05/03 04:08:20;;;;;;;12.20;10.40;;;;;;;9.94;66.30;96502.39;107903;1266;38431;-80
2022/05/03 04:10:51;;;;;;;14.50;12.10;;;;;;;9.95;66.28;96502.38;107887;1265;38303;-80
2022/05/03 04:13:21;;;;;;;13.30;11.60;;;;;;;10.00;66.13;96503.77;107893;1264;40047;-80
2022/05/03 04:15:54;;;;;;;13.80;11.50;;;;;;;10.04;66.09;96500.73;107941;1266;34446;-80
2022/05/03 04:18:44;;;;;;;14.90;11.50;;;;;;;10.08;66.10;96503.17;107898;1264;38593;-80
2022/05/03 04:21:16;;;;;;;15.50;12.10;;;;;;;10.22;66.16;96505.99;107921;1263;43255;-79
2022/05/03 04:23:48;;;;;;;13.30;11.10;;;;;;;10.45;65.91;96505.64;107883;1265;36198;-80
2022/05/03 04:26:18;;;;;;;11.40;9.40;;;;;;;10.72;65.16;96508.61;107938;1266;35285;-79
2022/05/03 04:28:49;;;;;;;13.10;10.00;;;;;;;10.90;64.25;96510.98;108032;1263;32627;-80
2022/05/03 04:31:20;;;;;;;12.40;10.10;;;;;;;10.99;63.66;96512.57;107998;1263;37413;-80
2022/05/03 04:33:51;;;;;;;13.40;10.40;;;;;;;11.04;63.51;96516.23;107893;1263;42151;-80
2022/05/03 04:36:25;;;;;;;12.20;9.60;;;;;;;11.05;63.43;96516.85;108000;1263;38222;-80
2022/05/03 04:38:56;;;;;;;11.80;9.20;;;;;;;11.06;63.18;96516.47;107797;1265;43653;-80
2022/05/03 04:41:27;;;;;;;12.00;10.10;;;;;;;11.18;63.15;96516.27;107933;1264;41857;-80
2022/05/03 04:43:58;;;;;;;12.90;10.10;;;;;;;11.24;62.67;96516.45;107941;1263;38296;-81
2022/05/03 04:46:30;;;;;;;12.80;10.00;;;;;;;11.15;62.41;96515.80;107984;1263;36848;-80
2022/05/03 04:49:00;;;;;;;12.10;9.90;;;;;;;11.03;62.66;96521.66;107884;1266;48903;-80
2022/05/03 04:51:33;;;;;;;13.40;10.50;;;;;;;10.91;62.81;96524.75;107804;1265;36603;-80
2022/05/03 04:54:04;;;;;;;13.70;11.30;;;;;;;10.86;63.05;96525.92;107889;1265;41256;-81
2022/05/03 04:56:35;;;;;;;12.50;10.80;;;;;;;11.17;63.07;96521.07;107904;1265;45259;-80
2022/05/03 04:59:06;;;;;;;12.10;10.30;;;;;;;11.62;62.54;96519.90;107969;1266;31351;-80
2022/05/03 05:01:37;;;;;;;13.80;11.40;;;;;;;12.57;60.92;96519.63;108038;1264;30792;-81
2022/05/03 05:04:08;;;;;;;11.80;9.90;;;;;;;13.75;59.40;96517.38;108025;1264;37760;-81
2022/05/03 05:06:39;;;;;;;12.20;9.30;;;;;;;14.83;57.32;96517.63;107985;1265;36779;-81
2022/05/03 05:09:10;;;;;;;11.00;9.50;;;;;;;15.11;54.58;96521.25;107846;1266;41223;-81
2022/05/03 05:11:41;;;;;;;11.60;9.40;;;;;;;14.54;54.63;96516.98;107908;1266;45274;-80
2022/05/03 05:14:12;;;;;;;9.80;8.40;;;;;;;13.98;54.95;96518.52;107897;1264;41746;-76
2022/05/03 05:16:44;;;;;;;10.30;8.80;;;;;;;13.66;55.48;96518.18;107908;1264;38545;-80
2022/05/03 05:19:15;;;;;;;10.30;8.80;;;;;;;14.25;55.45;96519.44;107977;1263;40207;-80
2022/05/03 05:21:46;;;;;;;9.60;8.10;;;;;;;14.66;54.71;96517.69;107723;1266;41775;-81
2022/05/03 05:24:17;;;;;;;9.00;7.50;;;;;;;15.16;53.54;96519.96;107801;1265;36589;-81
2022/05/03 05:26:48;;;;;;;9.20;8.20;;;;;;;15.38;52.26;96517.63;107892;1265;36446;-80
2022/05/03 05:29:19;;;;;;;9.50;8.40;;;;;;;14.85;52.90;96519.83;107813;1263;38221;-80
2022/05/03 05:31:50;;;;;;;10.10;8.70;;;;;;;14.43;53.67;96523.23;107849;1265;32474;-80
2022/05/03 05:34:21;;;;;;;10.20;9.10;;;;;;;14.25;53.91;96525.14;107863;1263;46632;-80
2022/05/03 05:36:52;;;;;;;11.40;8.70;;;;;;;15.15;53.81;96526.00;107809;1265;39939;-81
2022/05/03 05:39:23;;;;;;;9.90;8.50;;;;;;;16.07;51.32;96524.38;107776;1265;39182;-81
2022/05/03 05:41:59;;;;;;;11.10;8.50;;;;;;;16.82;50.64;96522.31;107943;1265;37207;-81
2022/05/03 05:44:30;;;;;;;10.30;8.60;;;;;;;16.33;49.25;96525.73;107784;1265;41043;-81
2022/05/03 05:47:07;;;;;;;9.50;8.50;;;;;;;15.45;50.49;96531.48;107939;1264;47969;-81
2022/05/03 05:49:39;;;;;;;11.80;8.80;;;;;;;15.07;51.38;96533.71;108019;1265;34971;-81
2022/05/03 05:55:05;;;;;;;10.50;8.80;;;;;;;14.33;52.99;96540.95;107576;1264;277398;-81
2022/05/03 05:57:35;;;;;;;10.60;8.80;;;;;;;14.50;53.41;96543.80;107993;1264;42777;-80
2022/05/03 06:00:09;;;;;;;9.80;7.90;;;;;;;16.13;53.19;96538.30;107965;1264;52349;-79
2022/05/03 06:02:40;;;;;;;10.20;8.20;;;;;;;17.52;50.44;96534.09;108081;1265;32339;-81
2022/05/03 06:05:11;;;;;;;11.30;9.00;;;;;;;17.33;49.14;96543.30;107939;1265;45584;-81
2022/05/03 06:07:42;;;;;;;10.70;8.70;;;;;;;16.35;49.57;96540.05;108017;1264;35046;-81
2022/05/03 06:10:13;;;;;;;11.90;8.70;;;;;;;15.51;51.19;96539.27;107992;1264;47170;-80
2022/05/03 06:12:45;;;;;;;11.10;9.50;;;;;;;15.12;53.41;96542.76;107898;1265;43906;-81
2022/05/03 06:15:19;;;;;;;12.60;9.80;;;;;;;14.81;53.96;96537.71;107909;1264;40021;-81
2022/05/03 06:17:50;;;;;;;13.40;10.00;;;;;;;14.25;55.28;96539.96;107941;1264;43171;-81
2022/05/03 06:20:21;;;;;;;13.10;10.40;;;;;;;13.63;55.74;96538.42;107891;1264;40602;-81
2022/05/03 06:22:53;;;;;;;12.10;9.90;;;;;;;13.21;56.91;96538.48;107985;1263;42588;-81
2022/05/03 06:25:25;;;;;;;12.40;11.00;;;;;;;12.91;58.21;96535.73;107974;1264;38120;-81
2022/05/03 06:27:56;;;;;;;13.80;11.30;;;;;;;12.67;58.66;96529.67;107942;1265;37743;-81
2022/05/03 06:30:27;;;;;;;13.20;11.30;;;;;;;12.52;58.98;96527.21;107750;1265;39755;-81
2022/05/03 06:32:58;;;;;;;14.10;9.30;;;;;;;12.56;59.02;96523.80;107802;1266;33474;-81
2022/05/03 06:35:29;;;;;;;11.80;9.90;;;;;;;12.58;59.32;96528.20;107824;1265;39341;-81
2022/05/03 06:38:01;;;;;;;12.40;9.90;;;;;;;12.49;60.03;96525.91;107857;1265;48106;-81
2022/05/03 06:40:33;;;;;;;12.00;10.80;;;;;;;12.60;60.57;96527.52;107835;1265;42657;-81
2022/05/03 06:43:04;;;;;;;15.50;13.90;;;;;;;13.35;62.60;96524.75;107915;1265;41594;-81
2022/05/03 06:45:37;;;;;;;13.50;10.50;;;;;;;14.60;60.87;96523.25;107968;1265;30608;-80
2022/05/03 06:48:12;;;;;;;12.50;10.10;;;;;;;15.76;58.93;96520.41;108081;1265;36547;-81
2022/05/03 06:50:45;;;;;;;11.40;9.30;;;;;;;17.75;54.24;96513.69;107964;1264;42916;-81
2022/05/03 06:53:17;;;;;;;9.70;8.30;;;;;;;18.36;52.84;96513.36;108040;1264;44021;-81
2022/05/03 06:55:50;;;;;;;9.40;8.20;;;;;;;19.80;49.83;96513.34;108111;1264;44023;-81
2022/05/03 06:58:22;;;;;;;9.10;7.30;;;;;;;21.39;48.17;96509.22;108015;1265;40688;-80
2022/05/03 07:00:54;;;;;;;10.10;8.10;;;;;;;23.13;44.10;96511.13;107925;1265;37648;-79
2022/05/03 07:03:25;;;;;;;9.70;8.70;;;;;;;23.95;40.74;96511.29;107975;1266;43261;-79
2022/05/03 07:05:57;;;;;;;8.50;7.60;;;;;;;23.46;40.00;96510.83;108020;1264;42188;-79
2022/05/03 07:08:29;;;;;;;8.50;7.60;;;;;;;22.43;39.49;96516.73;107919;1265;37265;-81
2022/05/03 07:11:01;;;;;;;9.70;7.90;;;;;;;21.65;40.11;96517.36;107844;1265;30819;-79
2022/05/03 07:13:33;;;;;;;10.40;9.30;;;;;;;21.44;40.10;96523.42;107982;1265;37017;-79
2022/05/03 07:16:06;;;;;;;11.60;9.10;;;;;;;20.57;40.96;96523.59;107947;1265;42804;-79
2022/05/03 07:24:16;;;;;;;12.20;10.40;;;;;;;17.92;44.54;96531.64;108000;1264;48088;-79
2022/05/03 07:26:48;;;;;;;11.30;10.10;;;;;;;17.36;45.97;96531.91;107990;1263;42017;-79
2022/05/03 07:29:20;;;;;;;9.50;8.50;;;;;;;17.38;46.64;96534.60;107769;1266;40476;-80
2022/05/03 07:31:53;;;;;;;10.10;9.10;;;;;;;17.56;45.59;96537.06;107799;1265;43668;-81
2022/05/03 07:34:24;;;;;;;8.20;6.50;;;;;;;17.80;45.82;96538.09;107854;1265;41421;-81
2022/05/03 07:36:56;;;;;;;9.70;8.20;;;;;;;18.55;44.38;96536.63;107794;1265;35809;-81
2022/05/03 07:39:27;;;;;;;9.40;8.40;;;;;;;19.08;44.04;96532.55;107911;1265;41358;-82
2022/05/03 07:41:58;;;;;;;10.40;9.30;;;;;;;18.73;44.32;96533.09;107805;1265;39240;-82
2022/05/03 07:44:29;;;;;;;10.00;9.00;;;;;;;17.95;44.96;96532.80;107718;1265;41602;-79
2022/05/03 07:47:01;;;;;;;10.50;9.00;;;;;;;17.29;46.45;96533.18;107953;1263;31317;-79
2022/05/03 07:49:32;;;;;;;9.90;7.90;;;;;;;17.44;47.19;96534.61;107954;1265;33960;-79
2022/05/03 07:52:05;;;;;;;8.10;7.20;;;;;;;18.38;46.57;96531.20;107915;1265;42877;-79
2022/05/03 07:54:40;;;;;;;7.00;6.30;;;;;;;19.76;45.01;96528.50;107929;1266;50374;-79
2022/05/03 07:57:13;;;;;;;5.80;5.00;;;;;;;21.81;43.39;96525.45;107798;1265;42346;-80
2022/05/03 07:59:45;;;;;;;4.90;4.40;;;;;;;23.46;38.51;96523.42;107964;1264;38636;-79
2022/05/03 08:02:16;;;;;;;4.40;4.00;;;;;;;24.39;36.31;96526.95;107795;1265;35901;-80
2022/05/03 08:04:49;;;;;;;4.80;3.90;;;;;;;25.53;34.63;96526.57;107809;1265;32697;-80
2022/05/03 08:07:21;;;;;;;4.40;3.50;;;;;;;26.72;34.02;96523.91;107935;1265;41368;-79
2022/05/03 08:09:53;;;;;;;3.60;2.90;;;;;;;27.99;32.33;96524.86;107941;1264;48147;-80
2022/05/03 08:12:25;;;;;;;3.00;2.80;;;;;;;28.92;29.04;96529.80;107768;1265;45004;-80
2022/05/03 08:14:57;;;;;;;3.50;2.90;;;;;;;29.57;29.33;96525.17;107785;1265;42015;-80
2022/05/03 08:17:29;;;;;;;3.70;2.60;;;;;;;30.59;28.47;96520.87;107881;1265;40170;-80
2022/05/03 08:20:01;;;;;;;2.70;2.50;;;;;;;31.22;27.48;96523.98;107884;1265;41034;-80
2022/05/03 08:22:34;;;;;;;2.90;2.70;;;;;;;31.87;26.04;96523.30;107866;1265;31359;-80
2022/05/03 08:25:07;;;;;;;3.20;2.90;;;;;;;32.07;24.69;96519.56;107969;1265;41476;-80
2022/05/03 08:27:41;;;;;;;3.30;3.00;;;;;;;31.98;25.30;96520.27;108171;1263;42375;-80
2022/05/03 08:30:13;;;;;;;3.10;2.80;;;;;;;32.24;24.44;96521.18;108025;1265;42543;-80
2022/05/03 08:32:45;;;;;;;2.90;2.70;;;;;;;32.38;24.15;96519.36;107698;1265;45833;-79
2022/05/03 08:35:16;;;;;;;3.20;3.00;;;;;;;32.41;23.78;96517.80;107963;1265;36651;-79
2022/05/03 08:43:26;;;;;;;3.20;2.70;;;;;;;33.01;22.70;96520.22;107858;1265;30893;-80
2022/05/03 08:46:02;;;;;;;2.50;2.20;;;;;;;32.98;21.63;96512.98;107972;1265;41689;-80
2022/05/03 08:48:40;;;;;;;3.00;2.80;;;;;;;32.16;21.78;96511.63;107949;1265;45975;-80
2022/05/03 08:51:16;;;;;;;4.50;3.00;;;;;;;31.31;22.12;96510.77;107972;1264;44277;-80
2022/05/03 08:53:48;;;;;;;3.10;2.80;;;;;;;30.72;22.57;96516.16;107816;1265;44629;-79
2022/05/03 08:56:21;;;;;;;3.90;3.40;;;;;;;31.24;23.31;96514.09;107786;1265;40841;-79
2022/05/03 08:58:53;;;;;;;4.80;4.10;;;;;;;31.03;22.30;96516.60;107772;1265;43014;-80
2022/05/03 09:01:24;;;;;;;4.40;3.30;;;;;;;30.98;23.11;96510.56;107767;1265;35109;-80
2022/05/03 09:03:57;;;;;;;4.20;3.60;;;;;;;31.00;21.81;96512.34;107915;1265;42752;-80
2022/05/03 09:06:45;;;;;;;4.30;3.70;;;;;;;30.22;22.63;96511.80;107806;1265;60027;-80
2022/05/03 09:09:19;;;;;;;7.20;5.80;;;;;;;29.69;22.66;96514.98;107827;1265;42328;-80
2022/05/03 09:11:53;;;;;;;4.40;4.00;;;;;;;29.96;24.67;96514.55;107910;1265;36660;-80
2022/05/03 09:14:43;;;;;;;5.00;4.30;;;;;;;31.26;24.04;96505.60;107944;1265;42920;-80
2022/05/03 09:17:14;;;;;;;9.40;8.30;;;;;;;29.61;22.05;96514.20;108006;1265;35807;-78
2022/05/03 09:19:45;;;;;;;6.40;4.60;;;;;;;26.91;24.18;96511.75;107861;1265;41292;-79
2022/05/03 09:25:15;;;;;;;9.60;7.40;;;;;;;22.93;28.39;96515.42;107840;1265;33545;-80
2022/05/03 09:27:46;;;;;;;9.30;8.30;;;;;;;21.87;28.73;96514.29;107792;1265;40990;-80
2022/05/03 09:30:18;;;;;;;5.30;4.80;;;;;;;21.15;30.05;96516.56;107883;1265;45042;-80
2022/05/03 09:32:52;;;;;;;6.50;5.10;;;;;;;20.29;30.72;96520.16;107878;1265;45943;-80
2022/05/03 09:35:40;;;;;;;7.30;5.80;;;;;;;19.70;32.62;96520.43;107935;1265;31467;-80
2022/05/03 09:38:11;;;;;;;8.10;6.00;;;;;;;19.18;34.23;96515.52;108017;1265;33045;-80
2022/05/03 09:40:45;;;;;;;7.10;6.40;;;;;;;18.85;34.79;96515.36;108020;1264;40993;-80
2022/05/03 09:43:17;;;;;;;9.10;8.10;;;;;;;18.63;35.08;96518.23;107929;1265;45099;-80
2022/05/03 09:46:05;;;;;;;9.30;8.30;;;;;;;18.59;36.20;96516.06;107879;1265;39883;-80
2022/05/03 09:48:54;;;;;;;7.10;6.30;;;;;;;18.56;36.55;96516.95;108018;1265;35901;-80
2022/05/03 09:51:27;;;;;;;7.50;6.30;;;;;;;18.52;36.70;96518.66;107890;1265;42122;-80
2022/05/03 09:54:00;;;;;;;8.10;6.30;;;;;;;18.69;36.06;96513.77;107898;1265;40940;-80
2022/05/03 09:56:35;;;;;;;21.80;14.80;;;;;;;18.62;37.33;96512.95;107937;1264;41393;-80
2022/05/03 09:59:10;;;;;;;11.30;7.90;;;;;;;18.49;37.37;96514.36;107913;1265;44248;-80
2022/05/03 10:01:42;;;;;;;10.10;7.90;;;;;;;18.38;37.98;96512.52;107982;1265;41009;-80
2022/05/03 10:04:15;;;;;;;9.10;6.90;;;;;;;18.41;38.11;96513.09;108042;1264;32643;-79
2022/05/03 10:06:46;;;;;;;8.70;5.90;;;;;;;18.58;38.68;96513.96;108009;1265;47350;-81
2022/05/03 10:09:18;;;;;;;7.20;5.90;;;;;;;18.82;38.99;96512.03;107981;1265;33379;-81
2022/05/03 10:11:50;;;;;;;6.30;5.40;;;;;;;19.11;39.34;96505.61;107885;1265;38122;-82
2022/05/03 10:14:22;;;;;;;8.40;5.30;;;;;;;19.46;37.20;96506.80;107902;1265;34327;-81
2022/05/03 10:22:43;;;;;;;6.30;5.20;;;;;;;20.66;35.47;96502.31;107515;1268;41898;-82
2022/05/03 10:25:15;;;;;;;7.30;6.00;;;;;;;20.67;34.59;96493.33;107737;1265;44581;-81
2022/05/03 10:28:00;;;;;;;7.20;6.10;;;;;;;20.15;35.13;96502.01;107898;1265;50264;-79
2022/05/03 10:30:33;;;;;;;7.70;6.90;;;;;;;19.44;36.04;96506.52;107764;1265;40339;-82
2022/05/03 10:33:37;;;;;;;9.50;7.20;;;;;;;19.21;38.19;96501.96;107928;1265;43629;-82
2022/05/03 10:36:39;;;;;;;7.50;6.70;;;;;;;19.40;38.45;96500.01;107808;1265;43164;-80
2022/05/03 10:39:21;;;;;;;8.70;6.40;;;;;;;19.51;38.00;96498.96;108016;1265;33679;-82
2022/05/03 10:42:01;;;;;;;10.10;7.40;;;;;;;19.44;37.43;96490.67;107947;1265;42789;-82
2022/05/03 10:44:44;;;;;;;8.40;7.10;;;;;;;19.52;37.79;96485.86;107940;1265;45453;-81
2022/05/03 10:47:21;;;;;;;8.70;6.30;;;;;;;19.80;37.65;96486.61;107936;1265;48319;-81
2022/05/03 10:50:23;;;;;;;5.90;5.30;;;;;;;19.57;37.12;96480.63;107745;1265;41838;-82
2022/05/03 10:53:25;;;;;;;9.20;7.10;;;;;;;19.07;37.74;96484.39;106475;1265;1774813;-82
2022/05/03 10:56:21;;;;;;;8.50;6.60;;;;;;;19.13;38.79;96479.42;107873;1265;42771;-80
2022/05/03 11:02:11;;;;;;;7.70;6.60;;;;;;;20.55;38.19;96477.70;104045;1309;545542;-81
2022/05/03 11:05:15;;;;;;;7.50;6.10;;;;;;;21.14;37.09;96473.16;106907;1283;38504;-82
2022/05/03 11:08:17;;;;;;;7.20;6.50;;;;;;;20.95;35.58;96467.88;106887;1283;33517;-81
2022/05/03 11:10:48;;;;;;;7.50;6.40;;;;;;;21.10;35.71;96463.92;106869;1283;38536;-81
2022/05/03 11:13:43;;;;;;;7.40;6.70;;;;;;;21.01;36.31;96468.02;106842;1283;48140;-81
2022/05/03 11:16:26;;;;;;;7.60;5.60;;;;;;;20.96;35.96;96462.50;106752;1280;207252;-81
2022/05/03 11:18:58;;;;;;;7.40;5.80;;;;;;;21.06;35.07;96462.51;107049;1280;44566;-82
2022/05/03 11:21:29;;;;;;;6.70;4.70;;;;;;;20.72;33.62;96458.07;106949;1280;86003;-81
2022/05/03 11:24:00;;;;;;;5.30;4.60;;;;;;;20.62;33.65;96465.05;107003;1279;39206;-81
2022/05/03 11:26:32;;;;;;;6.10;4.90;;;;;;;20.81;33.69;96459.20;106929;1280;39771;-81
2022/05/03 11:29:05;;;;;;;9.00;5.70;;;;;;;21.11;33.96;96456.53;107070;1280;33939;-82
2022/05/03 11:31:37;;;;;;;7.40;5.60;;;;;;;20.94;33.43;96456.11;107131;1280;48768;-81
2022/05/03 11:34:08;;;;;;;6.70;5.10;;;;;;;20.61;33.28;96460.33;107070;1280;34598;-81
2022/05/03 11:36:41;;;;;;;6.80;4.90;;;;;;;20.42;33.38;96460.38;107099;1280;40266;-81
2022/05/03 11:39:13;;;;;;;5.50;4.40;;;;;;;20.24;33.10;96455.48;107026;1279;32375;-82
2022/05/03 11:41:45;;;;;;;8.50;6.50;;;;;;;20.13;33.74;96451.02;106982;1280;40362;-80
2022/05/03 11:44:17;;;;;;;6.70;5.90;;;;;;;19.73;33.95;96454.77;106980;1280;43316;-82
2022/05/03 11:46:49;;;;;;;8.30;6.10;;;;;;;19.71;35.35;96445.30;107518;1268;40440;-81
2022/05/03 11:49:28;;;;;;;6.70;5.80;;;;;;;20.12;35.41;96442.02;107593;1268;35100;-81
2022/05/03 11:57:42;;;;;;;8.90;6.80;;;;;;;21.33;35.65;96436.17;107613;1270;46031;-82
2022/05/03 12:00:15;;;;;;;8.50;7.00;;;;;;;21.27;35.23;96442.54;107553;1270;39461;-81
2022/05/03 12:02:47;;;;;;;10.10;7.60;;;;;;;21.39;36.34;96445.25;107583;1269;45908;-81
2022/05/03 12:05:20;;;;;;;7.90;7.10;;;;;;;21.57;36.02;96436.33;107589;1268;39539;-81
2022/05/03 12:07:53;;;;;;;10.10;7.70;;;;;;;21.74;36.01;96433.98;107466;1270;40405;-82
2022/05/03 12:10:28;;;;;;;10.00;7.90;;;;;;;21.58;35.35;96430.40;107522;1268;42810;-82
2022/05/03 12:13:12;;;;;;;8.90;8.00;;;;;;;21.18;35.84;96430.89;107542;1271;44817;-81
2022/05/03 12:15:46;;;;;;;9.70;7.60;;;;;;;21.21;36.20;96430.68;107560;1270;49062;-82
2022/05/03 12:18:20;;;;;;;10.70;7.90;;;;;;;21.30;35.99;96428.83;107652;1268;42409;-82
2022/05/03 12:20:55;;;;;;;8.50;7.00;;;;;;;21.32;35.82;96431.48;107538;1270;36464;-82
2022/05/03 12:23:38;;;;;;;8.60;7.60;;;;;;;21.37;35.51;96426.33;107496;1270;43414;-81
2022/05/03 12:26:20;;;;;;;7.80;6.50;;;;;;;21.40;36.14;96430.17;107446;1270;41987;-82
2022/05/03 12:28:53;;;;;;;7.60;6.40;;;;;;;21.61;34.73;96430.55;107586;1269;34714;-82
2022/05/03 12:31:30;;;;;;;7.80;6.30;;;;;;;21.42;33.53;96428.74;107577;1270;32993;-81
2022/05/03 12:34:02;;;;;;;8.60;6.50;;;;;;;21.30;34.62;96427.73;107503;1270;35839;-81
2022/05/03 12:36:36;;;;;;;9.80;8.30;;;;;;;21.47;34.48;96423.84;107564;1268;37235;-82